createdAt,value
2019-05-13T00:00:08.455Z,5.8
2019-05-13T00:01:10.030Z,5.8
2019-05-13T00:02:13.314Z,5.8
2019-05-13T00:03:14.931Z,5.8
2019-05-13T00:04:16.796Z,5.8
2019-05-13T00:05:18.670Z,5.7
2019-05-13T00:06:20.535Z,5.7
2019-05-13T00:07:24.758Z,5.6
2019-05-13T00:08:26.624Z,5.5
2019-05-13T00:09:28.489Z,5.5
2019-05-13T00:10:30.352Z,5.4
2019-05-13T00:11:34.443Z,5.3
2019-05-13T00:12:36.458Z,5.2
2019-05-13T00:13:38.315Z,5.3
2019-05-13T00:14:40.181Z,5.3
2019-05-13T00:15:44.565Z,5.3
2019-05-13T00:16:46.449Z,5.2
2019-05-13T00:17:48.326Z,5.1
2019-05-13T00:18:50.191Z,5.1
2019-05-13T00:19:54.365Z,5.1
2019-05-13T00:20:56.218Z,5.1
2019-05-13T00:21:57.810Z,5
2019-05-13T00:22:59.397Z,5
2019-05-13T00:24:03.903Z,5
2019-05-13T00:25:05.931Z,5
2019-05-13T00:26:07.820Z,5
2019-05-13T00:27:09.683Z,5
2019-05-13T00:28:11.549Z,5
2019-05-13T00:29:15.722Z,5
2019-05-13T00:30:17.587Z,4.9
2019-05-13T00:31:19.449Z,5
2019-05-13T00:32:21.047Z,5
2019-05-13T00:33:25.081Z,5
2019-05-13T00:34:26.953Z,5.1
2019-05-13T00:35:28.820Z,5
2019-05-13T00:36:30.688Z,4.9
2019-05-13T00:37:35.148Z,5
2019-05-13T00:38:37.021Z,5.1
2019-05-13T00:39:38.885Z,4.9
2019-05-13T00:40:40.747Z,4.9
2019-05-13T00:41:45.158Z,4.9
2019-05-13T00:42:47.024Z,5
2019-05-13T00:43:48.886Z,5
2019-05-13T00:44:50.474Z,5
2019-05-13T00:45:54.324Z,4.9
2019-05-13T00:46:56.200Z,4.9
2019-05-13T00:47:58.065Z,5
2019-05-13T00:48:59.933Z,4.8
2019-05-13T00:50:03.617Z,4.8
2019-05-13T00:51:05.574Z,5
2019-05-13T00:52:07.438Z,4.9
2019-05-13T00:53:09.305Z,4.9
2019-05-13T00:54:13.124Z,4.8
2019-05-13T00:55:15.115Z,4.9
2019-05-13T00:56:16.981Z,4.8
2019-05-13T00:57:18.848Z,4.9
2019-05-13T00:58:20.726Z,4.9
2019-05-13T00:59:24.980Z,4.8
2019-05-13T01:00:26.847Z,4.6
2019-05-13T01:01:28.712Z,4.6
2019-05-13T01:02:30.578Z,4.7
2019-05-13T01:03:34.686Z,4.6
2019-05-13T01:04:36.560Z,4.6
2019-05-13T01:05:38.419Z,4.5
2019-05-13T01:06:40.283Z,4.5
2019-05-13T01:07:44.943Z,4.6
2019-05-13T01:08:46.812Z,4.5
2019-05-13T01:09:48.679Z,4.4
2019-05-13T01:10:50.547Z,4.3
2019-05-13T01:11:54.559Z,4.3
2019-05-13T01:12:56.425Z,4.3
2019-05-13T01:13:58.300Z,4.4
2019-05-13T01:15:00.166Z,4.2
2019-05-13T01:16:04.217Z,4.2
2019-05-13T01:17:06.059Z,4.3
2019-05-13T01:18:07.924Z,4.2
2019-05-13T01:19:09.521Z,4.2
2019-05-13T01:20:11.111Z,4.2
2019-05-13T01:21:15.261Z,4.3
2019-05-13T01:22:16.854Z,4.3
2019-05-13T01:23:18.441Z,4.4
2019-05-13T01:24:20.305Z,4.3
2019-05-13T01:25:24.234Z,4.3
2019-05-13T01:26:26.214Z,4.5
2019-05-13T01:27:28.083Z,4.5
2019-05-13T01:28:29.948Z,4.4
2019-05-13T01:29:31.539Z,4.4
2019-05-13T01:30:35.727Z,4.4
2019-05-13T01:31:37.597Z,4.5
2019-05-13T01:32:39.458Z,4.6
2019-05-13T01:33:41.327Z,4.5
2019-05-13T01:34:45.831Z,4.4
2019-05-13T01:35:47.420Z,4.5
2019-05-13T01:36:49.285Z,4.5
2019-05-13T01:37:50.873Z,4.4
2019-05-13T01:38:54.854Z,4.5
2019-05-13T01:39:56.720Z,4.4
2019-05-13T01:40:58.586Z,4.5
2019-05-13T01:41:59.889Z,4.4
2019-05-13T01:43:04.453Z,4.5
2019-05-13T01:44:06.333Z,4.4
2019-05-13T01:45:07.644Z,4.5
2019-05-13T01:46:09.509Z,4.4
2019-05-13T01:47:13.861Z,4.5
2019-05-13T01:48:15.456Z,4.4
2019-05-13T01:49:18.636Z,4.4
2019-05-13T01:50:20.598Z,4.3
2019-05-13T01:51:24.525Z,4.3
2019-05-13T01:52:26.402Z,4.4
2019-05-13T01:53:28.270Z,4.2
2019-05-13T01:54:29.857Z,4.4
2019-05-13T01:55:34.432Z,4.3
2019-05-13T01:56:36.305Z,4.3
2019-05-13T01:57:38.168Z,4.1
2019-05-13T01:58:40.033Z,4.1
2019-05-13T01:59:43.505Z,4.2
2019-05-13T02:00:45.488Z,4.1
2019-05-13T02:01:47.354Z,4
2019-05-13T02:02:49.218Z,3.9
2019-05-13T02:03:50.515Z,3.9
2019-05-13T02:04:54.946Z,4
2019-05-13T02:05:56.813Z,4
2019-05-13T02:06:58.405Z,4.1
2019-05-13T02:08:00.729Z,3.9
2019-05-13T02:09:05.436Z,3.9
2019-05-13T02:10:07.290Z,4
2019-05-13T02:11:09.154Z,3.8
2019-05-13T02:12:13.312Z,3.9
2019-05-13T02:13:15.220Z,3.9
2019-05-13T02:14:17.098Z,4
2019-05-13T02:15:18.960Z,3.9
2019-05-13T02:16:20.265Z,3.9
2019-05-13T02:17:23.405Z,3.9
2019-05-13T02:18:25.403Z,3.9
2019-05-13T02:19:26.981Z,3.9
2019-05-13T02:20:28.853Z,3.9
2019-05-13T02:21:30.712Z,3.8
2019-05-13T02:22:34.995Z,3.8
2019-05-13T02:23:36.870Z,3.9
2019-05-13T02:24:38.737Z,3.8
2019-05-13T02:25:40.607Z,3.8
2019-05-13T02:26:44.942Z,3.9
2019-05-13T02:27:46.838Z,3.9
2019-05-13T02:28:48.705Z,3.9
2019-05-13T02:29:50.297Z,4
2019-05-13T02:30:55.743Z,3.9
2019-05-13T02:31:58.610Z,3.7
2019-05-13T02:33:06.599Z,4
2019-05-13T02:34:08.482Z,4
2019-05-13T02:35:14.471Z,4
2019-05-13T02:36:16.323Z,4
2019-05-13T02:37:17.913Z,4
2019-05-13T02:38:28.475Z,4
2019-05-13T02:39:36.921Z,4.1
2019-05-13T02:40:38.769Z,4.2
2019-05-13T02:41:44.074Z,4.1
2019-05-13T02:42:45.676Z,4.2
2019-05-13T02:43:47.550Z,4.2
2019-05-13T02:44:52.286Z,4.2
2019-05-13T02:45:54.740Z,4.2
2019-05-13T02:46:56.615Z,4.1
2019-05-13T02:47:58.475Z,4.2
2019-05-13T02:49:04.250Z,4
2019-05-13T02:50:06.816Z,4.1
2019-05-13T02:51:12.159Z,4
2019-05-13T02:52:14.206Z,3.9
2019-05-13T02:53:15.795Z,3.9
2019-05-13T02:54:17.667Z,3.8
2019-05-13T02:55:22.134Z,3.9
2019-05-13T02:56:24.122Z,3.9
2019-05-13T02:57:25.713Z,3.8
2019-05-13T02:58:27.578Z,3.6
2019-05-13T02:59:29.452Z,3.6
2019-05-13T03:00:34.961Z,3.6
2019-05-13T03:01:36.842Z,3.6
2019-05-13T03:02:38.709Z,3.6
2019-05-13T03:03:44.489Z,3.8
2019-05-13T03:04:46.461Z,3.6
2019-05-13T03:05:48.326Z,3.6
2019-05-13T03:06:54.125Z,3.6
2019-05-13T03:07:55.994Z,3.6
2019-05-13T03:08:57.868Z,3.6
2019-05-13T03:10:03.728Z,3.6
2019-05-13T03:11:06.152Z,3.6
2019-05-13T03:12:08.019Z,3.7
2019-05-13T03:13:13.654Z,3.7
2019-05-13T03:14:15.520Z,3.6
2019-05-13T03:15:17.402Z,3.7
2019-05-13T03:16:18.979Z,3.7
2019-05-13T03:17:23.936Z,3.7
2019-05-13T03:18:25.801Z,3.7
2019-05-13T03:19:27.668Z,3.6
2019-05-13T03:20:33.633Z,3.6
2019-05-13T03:21:35.327Z,3.6
2019-05-13T03:22:37.613Z,3.6
2019-05-13T03:23:43.473Z,3.7
2019-05-13T03:24:46.108Z,3.7
2019-05-13T03:25:47.688Z,3.6
2019-05-13T03:26:52.738Z,3.6
2019-05-13T03:27:55.142Z,3.7
2019-05-13T03:28:56.765Z,3.5
2019-05-13T03:29:58.358Z,3.5
2019-05-13T03:31:07.407Z,3.5
2019-05-13T03:32:15.345Z,3.6
2019-05-13T03:33:21.379Z,3.6
2019-05-13T03:34:36.909Z,3.6
2019-05-13T03:35:44.436Z,3.5
2019-05-13T03:36:47.661Z,3.6
2019-05-13T03:37:52.454Z,3.6
2019-05-13T03:39:04.248Z,3.5
2019-05-13T03:40:17.154Z,3.6
2019-05-13T03:41:22.408Z,3.6
2019-05-13T03:42:24.665Z,3.6
2019-05-13T03:43:26.531Z,3.6
2019-05-13T03:44:28.396Z,3.5
2019-05-13T03:45:33.865Z,3.5
2019-05-13T03:46:35.456Z,3.5
2019-05-13T03:47:37.338Z,3.4
2019-05-13T03:48:43.069Z,3.4
2019-05-13T03:49:45.009Z,3.3
2019-05-13T03:50:46.597Z,3.4
2019-05-13T03:51:48.472Z,3.4
2019-05-13T03:52:53.834Z,3.6
2019-05-13T03:53:55.419Z,3.6
2019-05-13T03:54:57.287Z,3.5
2019-05-13T03:56:02.032Z,3.5
2019-05-13T03:57:04.392Z,3.5
2019-05-13T03:58:06.022Z,3.5
2019-05-13T03:59:07.879Z,3.5
2019-05-13T04:00:12.698Z,3.5
2019-05-13T04:01:14.988Z,3.6
2019-05-13T04:02:16.854Z,3.6
2019-05-13T04:03:18.721Z,3.6
2019-05-13T04:04:24.102Z,3.7
2019-05-13T04:05:25.970Z,3.7
2019-05-13T04:06:27.839Z,3.7
2019-05-13T04:07:32.908Z,3.7
2019-05-13T04:08:34.776Z,3.8
2019-05-13T04:09:36.919Z,3.7
2019-05-13T04:10:38.024Z,3.8
2019-05-13T04:11:42.920Z,3.7
2019-05-13T04:12:44.496Z,3.7
2019-05-13T04:13:46.367Z,3.8
2019-05-13T04:14:48.233Z,3.8
2019-05-13T04:15:53.277Z,3.8
2019-05-13T04:16:54.609Z,3.8
2019-05-13T04:17:56.465Z,3.9
2019-05-13T04:18:58.330Z,3.9
2019-05-13T04:20:03.836Z,3.9
2019-05-13T04:21:07.977Z,3.9
2019-05-13T04:22:13.393Z,3.8
2019-05-13T04:23:15.261Z,3.7
2019-05-13T04:24:17.128Z,3.8
2019-05-13T04:25:18.995Z,3.8
2019-05-13T04:26:24.648Z,3.8
2019-05-13T04:27:26.514Z,3.8
2019-05-13T04:28:28.379Z,3.7
2019-05-13T04:29:33.889Z,3.8
2019-05-13T04:30:35.178Z,3.8
2019-05-13T04:31:37.047Z,3.8
2019-05-13T04:32:38.911Z,3.9
2019-05-13T04:33:44.541Z,3.8
2019-05-13T04:34:46.127Z,3.9
2019-05-13T04:35:48.012Z,3.9
2019-05-13T04:36:53.355Z,4
2019-05-13T04:37:55.211Z,3.9
2019-05-13T04:38:57.075Z,3.9
2019-05-13T04:39:58.958Z,4
2019-05-13T04:41:04.703Z,3.9
2019-05-13T04:42:06.568Z,4
2019-05-13T04:43:08.432Z,4
2019-05-13T04:44:13.833Z,4
2019-05-13T04:45:15.700Z,3.9
2019-05-13T04:46:17.567Z,4
2019-05-13T04:47:23.180Z,4.1
2019-05-13T04:48:24.771Z,4.1
2019-05-13T04:49:26.633Z,4
2019-05-13T04:50:28.502Z,4.1
2019-05-13T04:51:33.854Z,4
2019-05-13T04:52:35.713Z,4.1
2019-05-13T04:53:37.295Z,4.1
2019-05-13T04:54:43.521Z,4.1
2019-05-13T04:55:45.661Z,4.2
2019-05-13T04:56:47.260Z,4.2
2019-05-13T04:57:48.846Z,4.2
2019-05-13T04:58:54.586Z,4.3
2019-05-13T04:59:56.459Z,4.2
2019-05-13T05:01:04.573Z,4.4
2019-05-13T05:02:14.938Z,4.3
2019-05-13T05:03:22.202Z,4.4
2019-05-13T05:04:46.900Z,4.4
2019-05-13T05:05:48.772Z,4.3
2019-05-13T05:06:54.041Z,4.4
2019-05-13T05:07:55.619Z,4.5
2019-05-13T05:08:57.487Z,4.4
2019-05-13T05:10:23.165Z,4.5
2019-05-13T05:11:43.353Z,4.6
2019-05-13T05:12:45.219Z,4.6
2019-05-13T05:13:47.091Z,4.6
2019-05-13T05:14:48.957Z,4.5
2019-05-13T05:15:53.601Z,4.7
2019-05-13T05:16:55.475Z,4.7
2019-05-13T05:17:57.343Z,4.6
2019-05-13T05:19:01.928Z,4.7
2019-05-13T05:20:04.185Z,4.7
2019-05-13T05:21:06.109Z,4.7
2019-05-13T05:22:07.711Z,4.8
2019-05-13T05:23:11.130Z,4.7
2019-05-13T05:24:13.145Z,4.9
2019-05-13T05:25:15.011Z,4.7
2019-05-13T05:26:16.872Z,4.9
2019-05-13T05:27:21.134Z,4.7
2019-05-13T05:28:22.914Z,4.9
2019-05-13T05:29:24.783Z,4.8
2019-05-13T05:30:26.648Z,4.8
2019-05-13T05:31:28.529Z,5
2019-05-13T05:32:35.800Z,5.1
2019-05-13T05:33:37.858Z,5.1
2019-05-13T05:34:42.071Z,5.1
2019-05-13T05:35:43.938Z,5
2019-05-13T05:36:45.805Z,5.1
2019-05-13T05:37:47.685Z,5.1
2019-05-13T05:38:51.353Z,5.1
2019-05-13T05:39:53.347Z,5.1
2019-05-13T05:40:55.218Z,5.2
2019-05-13T05:41:57.079Z,5.1
2019-05-13T05:42:58.947Z,5.1
2019-05-13T05:44:03.262Z,5.1
2019-05-13T05:45:04.836Z,5.2
2019-05-13T05:46:06.702Z,5.1
2019-05-13T05:47:11.151Z,5.2
2019-05-13T05:48:12.784Z,5.3
2019-05-13T05:49:14.648Z,5.1
2019-05-13T05:50:16.517Z,5.1
2019-05-13T05:51:18.383Z,5.3
2019-05-13T05:52:22.496Z,5.2
2019-05-13T05:53:24.360Z,5.1
2019-05-13T05:54:26.242Z,5.4
2019-05-13T05:55:28.092Z,5.4
2019-05-13T05:56:32.557Z,5.4
2019-05-13T05:57:34.474Z,5.4
2019-05-13T05:58:36.336Z,5.4
2019-05-13T05:59:38.202Z,5.5
2019-05-13T06:00:42.981Z,5.5
2019-05-13T06:01:44.837Z,5.4
2019-05-13T06:02:46.702Z,5.5
2019-05-13T06:03:48.569Z,5.5
2019-05-13T06:04:52.423Z,5.7
2019-05-13T06:05:54.016Z,5.7
2019-05-13T06:06:55.881Z,5.7
2019-05-13T06:07:57.459Z,5.6
2019-05-13T06:09:01.716Z,5.7
2019-05-13T06:10:03.702Z,5.8
2019-05-13T06:11:05.566Z,5.9
2019-05-13T06:12:07.441Z,5.9
2019-05-13T06:13:09.297Z,6
2019-05-13T06:14:13.527Z,6
2019-05-13T06:15:15.395Z,6.1
2019-05-13T06:16:17.263Z,6.2
2019-05-13T06:17:21.249Z,6.1
2019-05-13T06:18:23.420Z,6.3
2019-05-13T06:19:25.287Z,6.3
2019-05-13T06:20:27.151Z,6.4
2019-05-13T06:21:28.738Z,6.4
2019-05-13T06:22:33.034Z,6.4
2019-05-13T06:23:34.900Z,6.5
2019-05-13T06:24:36.778Z,6.5
2019-05-13T06:25:38.341Z,6.9
2019-05-13T06:26:43.166Z,6.9
2019-05-13T06:27:44.749Z,7.1
2019-05-13T06:28:46.324Z,7.2
2019-05-13T06:29:49.237Z,7.3
2019-05-13T06:30:54.350Z,7.2
2019-05-13T06:31:56.210Z,7.2
2019-05-13T06:33:15.802Z,7.3
2019-05-13T06:34:17.396Z,7.2
2019-05-13T06:35:18.983Z,7.4
2019-05-13T06:36:23.176Z,7.6
2019-05-13T06:37:25.037Z,7.5
2019-05-13T06:38:26.900Z,7.6
2019-05-13T06:39:28.762Z,7.4
2019-05-13T06:40:33.005Z,7.6
2019-05-13T06:41:34.872Z,7.6
2019-05-13T06:42:36.735Z,7.5
2019-05-13T06:43:38.604Z,7.5
2019-05-13T06:44:42.402Z,7.4
2019-05-13T06:45:43.983Z,7.4
2019-05-13T06:46:45.843Z,7.3
2019-05-13T06:47:47.708Z,7.5
2019-05-13T06:48:51.909Z,7.4
2019-05-13T06:49:53.890Z,7.5
2019-05-13T06:50:55.752Z,7.8
2019-05-13T06:51:57.614Z,7.8
2019-05-13T06:53:02.404Z,7.9
2019-05-13T06:54:04.018Z,8.1
2019-05-13T06:55:05.882Z,8.1
2019-05-13T06:56:07.452Z,8.2
2019-05-13T06:57:13.082Z,8.1
2019-05-13T06:58:15.135Z,8.3
2019-05-13T06:59:17.004Z,8.2
2019-05-13T07:00:21.276Z,8.2
2019-05-13T07:01:23.391Z,8.3
2019-05-13T07:02:25.266Z,8.2
2019-05-13T07:03:27.121Z,8.3
2019-05-13T07:04:28.704Z,8.4
2019-05-13T07:05:31.755Z,8.4
2019-05-13T07:06:33.732Z,8.4
2019-05-13T07:07:35.594Z,8.5
2019-05-13T07:08:37.453Z,8.4
2019-05-13T07:09:39.315Z,8.5
2019-05-13T07:10:43.999Z,8.6
2019-05-13T07:11:45.891Z,8.5
2019-05-13T07:12:47.960Z,8.5
2019-05-13T07:13:52.223Z,8.3
2019-05-13T07:14:54.083Z,8.4
2019-05-13T07:15:55.946Z,8.3
2019-05-13T07:16:57.811Z,8.2
2019-05-13T07:18:02.516Z,8.3
2019-05-13T07:19:04.394Z,8.4
2019-05-13T07:20:05.966Z,8.5
2019-05-13T07:21:07.837Z,8.5
2019-05-13T07:22:11.517Z,8.6
2019-05-13T07:23:13.551Z,8.7
2019-05-13T07:24:15.415Z,8.5
2019-05-13T07:25:17.275Z,8.5
2019-05-13T07:26:19.137Z,8.7
2019-05-13T07:27:23.506Z,8.9
2019-05-13T07:28:25.353Z,8.8
2019-05-13T07:29:27.214Z,8.9
2019-05-13T07:30:29.084Z,8.7
2019-05-13T07:31:33.007Z,8.7
2019-05-13T07:32:34.867Z,8.8
2019-05-13T07:33:36.737Z,8.9
2019-05-13T07:34:38.901Z,8.9
2019-05-13T07:35:45.765Z,8.8
2019-05-13T07:36:48.098Z,9
2019-05-13T07:37:52.189Z,8.9
2019-05-13T07:38:54.049Z,8.9
2019-05-13T07:39:55.912Z,9
2019-05-13T07:40:57.780Z,9.1
2019-05-13T07:42:05.205Z,9.1
2019-05-13T07:43:07.285Z,9.1
2019-05-13T07:44:11.568Z,9.1
2019-05-13T07:45:13.587Z,9.1
2019-05-13T07:46:15.520Z,9
2019-05-13T07:47:17.368Z,8.9
2019-05-13T07:48:21.373Z,8.9
2019-05-13T07:49:31.520Z,8.9
2019-05-13T07:50:33.852Z,8.9
2019-05-13T07:51:35.732Z,9.1
2019-05-13T07:52:37.297Z,9
2019-05-13T07:53:39.160Z,8.9
2019-05-13T07:54:43.403Z,9
2019-05-13T07:55:45.268Z,9
2019-05-13T07:56:46.852Z,9.2
2019-05-13T07:57:48.714Z,9.3
2019-05-13T07:58:52.573Z,9.2
2019-05-13T07:59:54.433Z,9.5
2019-05-13T08:00:56.298Z,9.4
2019-05-13T08:01:58.196Z,9.5
2019-05-13T08:03:03.484Z,9.4
2019-05-13T08:04:05.345Z,9.5
2019-05-13T08:05:22.520Z,9.3
2019-05-13T08:06:24.363Z,9.4
2019-05-13T08:07:26.225Z,9.5
2019-05-13T08:08:28.087Z,9.4
2019-05-13T08:09:31.737Z,9.4
2019-05-13T08:10:33.975Z,9.4
2019-05-13T08:11:53.535Z,9.5
2019-05-13T08:13:15.345Z,9.6
2019-05-13T08:14:17.207Z,9.7
2019-05-13T08:15:19.068Z,9.7
2019-05-13T08:16:23.681Z,9.7
2019-05-13T08:17:25.543Z,9.7
2019-05-13T08:18:27.406Z,9.6
2019-05-13T08:19:29.274Z,9.7
2019-05-13T08:20:33.889Z,9.7
2019-05-13T08:21:35.752Z,9.6
2019-05-13T08:22:37.614Z,9.7
2019-05-13T08:23:41.667Z,9.8
2019-05-13T08:24:43.605Z,9.9
2019-05-13T08:25:45.468Z,10.1
2019-05-13T08:26:49.840Z,10
2019-05-13T08:27:54.544Z,9.9
2019-05-13T08:29:01.457Z,10.1
2019-05-13T08:30:07.349Z,10.1
2019-05-13T08:31:09.209Z,10.1
2019-05-13T08:32:13.396Z,10.2
2019-05-13T08:33:15.264Z,10.2
2019-05-13T08:34:17.120Z,10
2019-05-13T08:35:18.984Z,10.2
2019-05-13T08:36:23.665Z,10.3
2019-05-13T08:37:25.537Z,10.2
2019-05-13T08:38:27.405Z,10.1
2019-05-13T08:39:33.211Z,10.1
2019-05-13T08:40:42.695Z,10.1
2019-05-13T08:41:44.585Z,10
2019-05-13T08:42:46.172Z,9.7
2019-05-13T08:43:48.035Z,9.7
2019-05-13T08:44:52.215Z,9.8
2019-05-13T08:45:55.711Z,9.9
2019-05-13T08:46:57.676Z,10
2019-05-13T08:48:01.663Z,10.2
2019-05-13T08:49:03.981Z,10.2
2019-05-13T08:50:05.861Z,10.3
2019-05-13T08:51:07.773Z,10.3
2019-05-13T08:52:12.551Z,10.5
2019-05-13T08:53:14.414Z,10.5
2019-05-13T08:54:16.279Z,10.4
2019-05-13T08:55:18.146Z,10.3
2019-05-13T08:56:22.809Z,10.5
2019-05-13T08:57:24.667Z,10.5
2019-05-13T08:58:26.532Z,10.6
2019-05-13T08:59:28.390Z,10.6
2019-05-13T09:00:33.045Z,10.6
2019-05-13T09:01:34.905Z,10.6
2019-05-13T09:02:36.769Z,10.6
2019-05-13T09:03:41.322Z,10.5
2019-05-13T09:04:43.536Z,10.8
2019-05-13T09:05:45.397Z,10.8
2019-05-13T09:06:47.266Z,11
2019-05-13T09:07:49.121Z,10.9
2019-05-13T09:08:54.397Z,11
2019-05-13T09:09:56.419Z,11
2019-05-13T09:10:58.278Z,10.9
2019-05-13T09:12:03.583Z,10.9
2019-05-13T09:13:05.443Z,10.8
2019-05-13T09:14:07.321Z,10.8
2019-05-13T09:15:12.035Z,10.8
2019-05-13T09:16:13.939Z,10.8
2019-05-13T09:17:15.803Z,10.8
2019-05-13T09:18:17.667Z,10.8
2019-05-13T09:19:21.526Z,10.9
2019-05-13T09:20:23.482Z,11
2019-05-13T09:21:25.347Z,11.1
2019-05-13T09:22:27.206Z,11.1
2019-05-13T09:23:31.109Z,11.2
2019-05-13T09:24:37.481Z,11.3
2019-05-13T09:25:41.294Z,11.4
2019-05-13T09:26:42.874Z,11.3
2019-05-13T09:27:44.805Z,11.3
2019-05-13T09:28:46.668Z,11.2
2019-05-13T09:29:48.531Z,11.2
2019-05-13T09:30:53.351Z,11.3
2019-05-13T09:31:55.261Z,11.2
2019-05-13T09:32:57.127Z,11.3
2019-05-13T09:34:01.158Z,11.2
2019-05-13T09:35:03.308Z,11.1
2019-05-13T09:36:05.158Z,11.1
2019-05-13T09:37:06.460Z,11.4
2019-05-13T09:38:08.367Z,11.4
2019-05-13T09:39:13.134Z,11.5
2019-05-13T09:40:14.997Z,11.5
2019-05-13T09:41:16.861Z,11.5
2019-05-13T09:42:18.723Z,11.4
2019-05-13T09:43:23.000Z,11.3
2019-05-13T09:44:24.862Z,11.5
2019-05-13T09:45:26.446Z,11.6
2019-05-13T09:46:28.310Z,11.7
2019-05-13T09:47:32.782Z,11.6
2019-05-13T09:48:34.643Z,11.7
2019-05-13T09:49:36.542Z,11.8
2019-05-13T09:50:38.403Z,11.8
2019-05-13T09:51:42.923Z,11.9
2019-05-13T09:52:44.543Z,11.8
2019-05-13T09:53:46.389Z,11.7
2019-05-13T09:54:48.251Z,11.7
2019-05-13T09:55:52.712Z,11.7
2019-05-13T09:56:54.578Z,11.8
2019-05-13T09:57:56.436Z,11.9
2019-05-13T09:58:58.299Z,11.8
2019-05-13T10:00:02.615Z,11.9
2019-05-13T10:01:04.470Z,11.8
2019-05-13T10:02:06.338Z,12
2019-05-13T10:03:07.924Z,12.1
2019-05-13T10:04:11.875Z,12.1
2019-05-13T10:05:13.591Z,12
2019-05-13T10:06:15.452Z,12.1
2019-05-13T10:07:17.320Z,12
2019-05-13T10:08:21.631Z,12.1
2019-05-13T10:09:23.759Z,12.1
2019-05-13T10:10:25.360Z,12.1
2019-05-13T10:11:26.933Z,12.1
2019-05-13T10:12:31.598Z,12.1
2019-05-13T10:13:33.758Z,12.1
2019-05-13T10:14:35.616Z,12.3
2019-05-13T10:15:37.486Z,12.1
2019-05-13T10:16:42.752Z,12.2
2019-05-13T10:17:44.685Z,12.3
2019-05-13T10:18:46.534Z,12.1
2019-05-13T10:19:48.397Z,12.3
2019-05-13T10:20:57.303Z,12.4
2019-05-13T10:22:00.540Z,12.3
2019-05-13T10:23:02.413Z,12.4
2019-05-13T10:24:04.287Z,12.4
2019-05-13T10:25:06.415Z,12.5
2019-05-13T10:26:08.520Z,12.5
2019-05-13T10:27:18.767Z,12.7
2019-05-13T10:28:23.663Z,12.6
2019-05-13T10:29:25.526Z,12.6
2019-05-13T10:30:27.391Z,12.8
2019-05-13T10:31:31.375Z,12.7
2019-05-13T10:32:33.465Z,12.7
2019-05-13T10:33:35.331Z,12.8
2019-05-13T10:34:37.194Z,12.7
2019-05-13T10:35:39.076Z,12.8
2019-05-13T10:36:43.729Z,12.8
2019-05-13T10:37:45.776Z,12.5
2019-05-13T10:38:48.018Z,12.7
2019-05-13T10:39:51.714Z,12.8
2019-05-13T10:40:53.718Z,12.7
2019-05-13T10:41:55.586Z,12.8
2019-05-13T10:42:57.451Z,12.9
2019-05-13T10:44:02.911Z,12.7
2019-05-13T10:45:05.015Z,12.9
2019-05-13T10:46:06.598Z,13
2019-05-13T10:47:08.460Z,13.1
2019-05-13T10:48:13.566Z,13.1
2019-05-13T10:49:15.656Z,13.1
2019-05-13T10:50:17.894Z,13.1
2019-05-13T10:51:28.165Z,13.2
2019-05-13T10:52:33.026Z,13.1
2019-05-13T10:53:34.885Z,13.1
2019-05-13T10:54:36.473Z,13
2019-05-13T10:55:38.338Z,13.1
2019-05-13T10:56:43.209Z,13
2019-05-13T10:57:45.111Z,13.1
2019-05-13T10:58:46.975Z,13.1
2019-05-13T10:59:48.852Z,13.2
2019-05-13T11:00:53.874Z,13.1
2019-05-13T11:01:55.909Z,13
2019-05-13T11:02:58.148Z,13.1
2019-05-13T11:04:02.536Z,13.3
2019-05-13T11:05:04.561Z,13.2
2019-05-13T11:06:06.421Z,13
2019-05-13T11:07:08.303Z,13.1
2019-05-13T11:08:12.830Z,13
2019-05-13T11:09:14.686Z,13.1
2019-05-13T11:10:16.548Z,13.1
2019-05-13T11:11:18.410Z,13.1
2019-05-13T11:12:27.738Z,13.1
2019-05-13T11:13:47.660Z,13.3
2019-05-13T11:17:01.538Z,13.4
2019-05-13T11:18:03.612Z,13.4
2019-05-13T11:19:06.272Z,13.4
2019-05-13T11:20:07.830Z,13.4
2019-05-13T11:21:12.146Z,13.3
2019-05-13T11:22:14.702Z,13.4
2019-05-13T11:23:16.563Z,13.4
2019-05-13T11:24:18.426Z,13.4
2019-05-13T11:25:22.986Z,13.4
2019-05-13T11:26:24.847Z,13.6
2019-05-13T11:27:26.435Z,13.6
2019-05-13T11:28:28.299Z,13.7
2019-05-13T11:29:32.914Z,13.7
2019-05-13T11:30:34.954Z,13.7
2019-05-13T11:31:36.816Z,13.7
2019-05-13T11:32:38.679Z,13.8
2019-05-13T11:33:44.032Z,13.7
2019-05-13T11:34:45.907Z,13.6
2019-05-13T11:35:47.787Z,13.5
2019-05-13T11:36:52.817Z,13.4
2019-05-13T11:37:55.167Z,13.6
2019-05-13T11:38:57.029Z,13.8
2019-05-13T11:39:58.904Z,13.7
2019-05-13T11:41:04.425Z,13.7
2019-05-13T11:42:06.288Z,13.5
2019-05-13T11:43:07.875Z,13.6
2019-05-13T11:44:16.599Z,13.5
2019-05-13T11:45:18.525Z,13.6
2019-05-13T11:46:23.136Z,13.6
2019-05-13T11:47:25.001Z,13.7
2019-05-13T11:48:26.586Z,13.7
2019-05-13T11:49:28.172Z,13.8
2019-05-13T11:50:32.486Z,13.8
2019-05-13T11:51:34.352Z,13.8
2019-05-13T11:52:36.840Z,13.8
2019-05-13T11:53:38.702Z,13.9
2019-05-13T11:54:43.032Z,13.7
2019-05-13T11:55:44.887Z,13.9
2019-05-13T11:56:50.407Z,14
2019-05-13T11:58:07.191Z,13.9
2019-05-13T11:59:09.073Z,13.9
2019-05-13T12:00:15.067Z,13.9
2019-05-13T12:01:16.094Z,14
2019-05-13T12:02:17.958Z,14
2019-05-13T12:03:24.082Z,14
2019-05-13T12:04:25.364Z,14
2019-05-13T12:05:26.947Z,14.1
2019-05-13T12:06:28.917Z,14
2019-05-13T12:07:35.669Z,14
2019-05-13T12:08:37.787Z,14
2019-05-13T12:09:39.650Z,14
2019-05-13T12:10:43.895Z,14
2019-05-13T12:11:45.956Z,13.9
2019-05-13T12:12:47.811Z,14
2019-05-13T12:13:52.720Z,13.9
2019-05-13T12:15:22.011Z,14
2019-05-13T12:16:54.430Z,14.1
2019-05-13T12:17:56.298Z,14.3
2019-05-13T12:18:58.759Z,14.4
2019-05-13T12:20:04.883Z,14.5
2019-05-13T12:21:06.764Z,14.4
2019-05-13T12:22:08.629Z,14.6
2019-05-13T12:23:14.113Z,14.5
2019-05-13T12:24:15.969Z,14.5
2019-05-13T12:25:17.845Z,14.6
2019-05-13T12:26:23.877Z,14.3
2019-05-13T12:27:25.794Z,14.4
2019-05-13T12:28:27.387Z,14.4
2019-05-13T12:29:29.258Z,14.3
2019-05-13T12:30:33.789Z,14.6
2019-05-13T12:31:36.649Z,14.7
2019-05-13T12:32:38.513Z,14.6
2019-05-13T12:33:44.253Z,14.7
2019-05-13T12:34:46.234Z,14.6
2019-05-13T12:35:48.089Z,14.6
2019-05-13T12:36:54.514Z,14.6
2019-05-13T12:37:56.389Z,14.7
2019-05-13T12:38:57.987Z,14.8
2019-05-13T12:40:02.861Z,14.9
2019-05-13T12:41:05.649Z,15
2019-05-13T12:42:07.598Z,15
2019-05-13T12:43:12.602Z,15
2019-05-13T12:44:16.175Z,14.9
2019-05-13T12:45:17.766Z,14.9
2019-05-13T12:46:24.623Z,15
2019-05-13T12:47:26.414Z,14.9
2019-05-13T12:48:28.285Z,14.9
2019-05-13T12:49:33.293Z,14.9
2019-05-13T12:50:38.254Z,14.9
2019-05-13T12:51:44.161Z,14.8
2019-05-13T12:52:46.067Z,14.9
2019-05-13T12:53:47.933Z,15.1
2019-05-13T12:54:53.277Z,15
2019-05-13T12:55:56.118Z,14.8
2019-05-13T12:57:03.934Z,14.7
2019-05-13T12:58:17.001Z,14.8
2019-05-13T12:59:18.867Z,14.7
2019-05-13T13:00:23.909Z,14.7
2019-05-13T13:01:25.782Z,14.7
2019-05-13T13:02:27.650Z,14.8
2019-05-13T13:03:32.979Z,14.8
2019-05-13T13:04:34.578Z,14.8
2019-05-13T13:05:37.127Z,14.7
2019-05-13T13:06:41.467Z,14.7
2019-05-13T13:08:12.796Z,14.6
2019-05-13T13:09:53.396Z,14.8
2019-05-13T13:10:55.721Z,14.7
2019-05-13T13:11:57.311Z,14.8
2019-05-13T13:13:02.111Z,14.8
2019-05-13T13:14:05.571Z,15
2019-05-13T13:15:36.776Z,14.9
2019-05-13T13:16:53.413Z,14.9
2019-05-13T13:17:55.829Z,14.9
2019-05-13T13:18:57.698Z,14.9
2019-05-13T13:20:08.688Z,14.9
2019-05-13T13:21:16.385Z,14.8
2019-05-13T13:22:18.255Z,14.8
2019-05-13T13:23:26.141Z,14.8
2019-05-13T13:24:31.591Z,14.9
2019-05-13T13:25:33.973Z,14.9
2019-05-13T13:26:35.882Z,15.1
2019-05-13T13:28:02.976Z,15.2
2019-05-13T13:29:16.697Z,15.4
2019-05-13T13:30:18.570Z,15.3
2019-05-13T13:31:24.933Z,15.3
2019-05-13T13:32:27.239Z,15.2
2019-05-13T13:33:28.830Z,15.1
2019-05-13T13:34:35.705Z,15
2019-05-13T13:35:37.571Z,15.2
2019-05-13T13:39:48.175Z,15.2
2019-05-13T13:40:55.889Z,15.2
2019-05-13T13:41:57.756Z,15.3
2019-05-13T13:43:03.954Z,15.5
2019-05-13T13:44:07.141Z,15.3
2019-05-13T13:45:12.643Z,15.5
2019-05-13T13:46:33.519Z,15.3
2019-05-13T13:48:03.051Z,15.2
2019-05-13T13:49:05.896Z,15.1
2019-05-13T13:50:07.614Z,15.2
2019-05-13T13:51:13.989Z,15.3
2019-05-13T13:52:16.472Z,15.4
2019-05-13T13:53:18.339Z,15.3
2019-05-13T13:54:26.872Z,15.4
2019-05-13T13:55:31.390Z,15.2
2019-05-13T13:56:34.827Z,15.4
2019-05-13T13:57:36.396Z,15.1
2019-05-13T13:58:38.262Z,15.3
2019-05-13T14:00:15.967Z,15.4
2019-05-13T14:02:13.410Z,15.5
2019-05-13T14:03:15.245Z,15.5
2019-05-13T14:04:17.108Z,15.4
2019-05-13T14:05:18.696Z,15.3
2019-05-13T14:07:07.039Z,15.1
2019-05-13T14:07:33.754Z,15.2
2019-05-13T14:08:43.058Z,15.3
2019-05-13T14:09:45.021Z,15.7
2019-05-13T14:10:46.606Z,15.7
2019-05-13T14:11:48.479Z,15.6
2019-05-13T14:12:52.939Z,15.6
2019-05-13T14:13:54.803Z,15.6
2019-05-13T14:14:56.666Z,15.5
2019-05-13T14:15:58.531Z,15.6
2019-05-13T14:17:03.216Z,15.6
2019-05-13T14:18:05.079Z,15.6
2019-05-13T14:19:06.652Z,15.5
2019-05-13T14:20:08.250Z,15.6
2019-05-13T14:21:10.120Z,15.7
2019-05-13T14:22:12.882Z,15.7
2019-05-13T14:23:14.740Z,15.5
2019-05-13T14:24:16.312Z,15.6
2019-05-13T14:25:18.176Z,15.5
2019-05-13T14:26:22.817Z,15.5
2019-05-13T14:27:24.683Z,15.4
2019-05-13T14:28:26.547Z,15.4
2019-05-13T14:29:38.366Z,15.4
2019-05-13T14:30:53.351Z,15.5
2019-05-13T14:31:55.218Z,15.4
2019-05-13T14:32:56.829Z,15.5
2019-05-13T14:33:58.677Z,15.5